CST,Max TemperatureF,Mean TemperatureF,Min TemperatureF,Max Dew PointF,MeanDew PointF,Min DewpointF,Max Humidity, Mean Humidity, Min Humidity, Max Sea Level PressureIn, Mean Sea Level PressureIn, Min Sea Level PressureIn, Max VisibilityMiles, Mean VisibilityMiles, Min VisibilityMiles, Max Wind SpeedMPH, Mean Wind SpeedMPH, Max Gust SpeedMPH,PrecipitationIn, CloudCover, Events, WindDirDegrees
2013-1-1,13,4,-5,6,-2,-9,86,79,68,30.31,30.24,30.13,10,10,10,8,6,,0.00,0,,253
2013-1-2,30,15,0,28,14,-2,93,88,80,30.16,30.06,30.02,10,9,5,15,8,,0.00,4,Snow,237
2013-1-3,30,18,6,27,13,4,92,84,74,30.37,30.30,30.16,10,10,10,21,12,21,0.00,3,,288
2013-1-4,31,20,9,23,15,7,95,84,69,30.27,30.19,30.14,10,10,10,15,8,,0.00,0,,211
2013-1-5,36,22,9,31,19,8,97,87,75,30.13,30.04,29.93,10,9,4,24,10,29,0.00,3,,231
2013-1-6,26,18,11,20,14,8,92,84,75,30.30,30.22,30.11,10,10,7,18,12,26,0.00,1,,264
2013-1-7,38,28,18,31,24,15,99,82,68,30.16,30.04,29.99,10,10,7,26,11,24,0.00,0,,200
2013-1-8,39,28,17,33,26,16,99,90,76,30.07,29.94,29.83,10,9,0,16,6,,0.00,1,Fog,188
2013-1-9,39,32,24,33,28,22,94,88,74,30.42,30.31,30.07,10,10,10,20,11,,0.00,0,,217
2013-1-10,36,30,24,35,29,22,100,90,71,30.37,30.03,29.71,10,6,0,15,7,,0.01,5,Fog-Rain,122
2013-1-11,44,38,33,41,37,32,100,95,81,29.71,29.54,29.41,10,4,0,26,10,37,0.00,5,Fog-Rain-Snow,170
2013-1-12,33,22,11,32,14,5,96,75,69,30.10,29.97,29.62,10,10,7,34,20,40,0.00,5,Snow,293
2013-1-13,19,12,6,10,5,0,86,75,62,30.31,30.18,30.06,10,10,10,17,11,21,0.00,2,,304
2013-1-14,28,17,6,16,9,3,88,76,50,30.45,30.38,30.32,10,10,10,15,6,20,0.00,0,,233
2013-1-15,32,22,12,19,14,9,89,75,49,30.35,30.24,30.03,10,10,10,13,7,,0.00,1,,192
2013-1-16,45,32,19,35,26,14,92,78,66,30.21,29.97,29.86,10,10,10,20,13,30,0.00,4,,269
2013-1-17,36,25,14,27,18,9,95,76,52,30.46,30.37,30.22,10,10,10,14,7,,0.00,2,,294
2013-1-18,50,36,23,34,30,22,94,76,51,30.29,30.00,29.85,10,10,7,30,14,38,0.00,0,,216
2013-1-19,48,32,16,34,28,7,86,69,52,30.29,29.96,29.81,10,10,10,30,14,38,0.00,1,,286
2013-1-20,15,8,1,9,5,-3,87,78,66,30.41,30.36,30.29,10,8,1,20,12,26,0.00,4,Snow,324
2013-1-21,8,2,-4,0,-5,-13,84,72,65,30.44,30.37,30.34,10,10,7,21,12,28,0.00,0,,305
2013-1-22,16,8,1,8,1,-4,80,67,54,30.41,30.34,30.26,10,10,10,10,4,,0.00,5,,245
2013-1-23,26,14,3,18,8,-5,87,74,61,30.53,30.27,30.15,10,10,10,25,12,31,0.00,1,,312
2013-1-24,19,10,1,6,-2,-7,72,58,46,30.58,30.43,30.19,10,10,10,17,11,20,0.00,2,,106
2013-1-25,36,23,10,25,14,2,89,70,55,30.29,30.15,30.07,10,10,10,20,10,26,0.00,1,,293
2013-1-26,36,22,7,17,9,2,82,62,42,30.33,30.23,30.10,10,10,10,17,8,17,0.00,3,,121
2013-1-27,34,32,30,34,30,18,100,90,55,30.10,29.87,29.74,10,4,0,15,10,,0.05,8,Fog-Rain,126
2013-1-28,41,36,32,41,36,33,100,100,98,29.90,29.77,29.54,3,0,0,14,6,,0.00,8,Fog-Rain-Snow,108
2013-1-29,40,35,30,40,33,28,100,95,91,29.67,29.60,29.50,10,7,0,26,9,31,0.01,8,Fog-Rain-Snow,337
2013-1-30,29,20,12,28,18,7,96,84,73,29.86,29.69,29.54,10,5,0,30,23,39,0.00,7,Snow,326
2013-1-31,11,5,-1,6,-3,-9,83,72,65,30.36,30.12,29.88,10,9,5,23,16,32,0.00,3,,305